createdAt,value
2023-12-27T21:21:35.132Z,42.33
2023-12-27T21:26:52.982Z,40.70
2023-12-27T21:30:02.827Z,43.18
2023-12-27T21:33:11.512Z,44.93
2023-12-27T21:36:30.115Z,47.93
2023-12-27T21:39:38.748Z,53.68
2023-12-27T21:42:47.472Z,50.10
2023-12-27T21:45:56.017Z,53.35
2023-12-27T21:49:06.028Z,58.88
2023-12-27T21:52:14.579Z,61.88
2023-12-27T21:55:22.916Z,59.50
2023-12-27T21:58:31.473Z,47.58
2023-12-27T22:01:40.144Z,46.73
2023-12-27T22:04:48.894Z,55.68
2023-12-27T22:08:04.768Z,56.93
2023-12-27T22:11:07.773Z,56.85
2023-12-27T22:14:16.179Z,49.50
2023-12-27T22:17:24.774Z,53.90
2023-12-27T22:20:33.296Z,54.00
2023-12-27T22:23:41.802Z,54.08
2023-12-27T22:26:50.274Z,56.23
2023-12-27T22:29:58.673Z,62.15
2023-12-27T22:33:08.016Z,55.73
2023-12-27T22:36:22.100Z,52.05
2023-12-27T22:39:29.090Z,51.00
2023-12-27T22:42:37.997Z,64.35
2023-12-27T22:45:46.958Z,78.20
2023-12-27T22:48:55.995Z,58.25
2023-12-27T22:52:04.629Z,73.75
2023-12-27T22:55:13.493Z,73.10
2023-12-27T22:58:21.947Z,60.20
2023-12-27T23:01:30.567Z,73.35
2023-12-27T23:04:39.150Z,65.73
2023-12-27T23:07:47.806Z,74.58
2023-12-27T23:10:56.369Z,72.18
2023-12-27T23:14:04.812Z,75.03
2023-12-27T23:17:13.221Z,68.28
2023-12-27T23:20:22.288Z,77.18
2023-12-27T23:23:30.644Z,72.73
2023-12-27T23:26:39.016Z,67.83
2023-12-27T23:29:47.557Z,74.68
2023-12-27T23:32:56.883Z,71.85
2023-12-27T23:36:05.557Z,78.65
2023-12-27T23:39:16.110Z,68.10
2023-12-27T23:42:24.597Z,74.58
2023-12-27T23:45:33.175Z,77.05
2023-12-27T23:48:41.751Z,73.00
2023-12-27T23:51:51.196Z,72.90
2023-12-27T23:54:59.980Z,76.58
2023-12-27T23:58:08.613Z,70.98
